sensor_id;sensor_type;location;lat;lon;timestamp;temperature;humidity
4406;DHT22;2216;53.806;11.598;2022-07-10T00:00:38;14.50;56.90
4406;DHT22;2216;53.806;11.598;2022-07-10T00:03:04;14.40;57.00
4406;DHT22;2216;53.806;11.598;2022-07-10T00:05:31;14.40;57.00
4406;DHT22;2216;53.806;11.598;2022-07-10T00:07:57;14.40;57.10
4406;DHT22;2216;53.806;11.598;2022-07-10T00:10:23;14.40;57.70
4406;DHT22;2216;53.806;11.598;2022-07-10T00:12:50;14.40;57.10
4406;DHT22;2216;53.806;11.598;2022-07-10T00:15:17;14.40;57.00
4406;DHT22;2216;53.806;11.598;2022-07-10T00:17:43;14.40;57.00
4406;DHT22;2216;53.806;11.598;2022-07-10T00:20:11;14.40;57.00
4406;DHT22;2216;53.806;11.598;2022-07-10T00:22:38;14.40;57.00
4406;DHT22;2216;53.806;11.598;2022-07-10T00:25:05;14.30;57.00
4406;DHT22;2216;53.806;11.598;2022-07-10T00:27:32;14.30;57.00
4406;DHT22;2216;53.806;11.598;2022-07-10T00:29:58;14.30;57.40
4406;DHT22;2216;53.806;11.598;2022-07-10T00:32:24;14.30;57.10
4406;DHT22;2216;53.806;11.598;2022-07-10T00:34:50;14.30;57.40
4406;DHT22;2216;53.806;11.598;2022-07-10T00:37:17;14.30;57.10
4406;DHT22;2216;53.806;11.598;2022-07-10T00:39:42;14.30;57.20
4406;DHT22;2216;53.806;11.598;2022-07-10T00:42:13;14.20;57.10
4406;DHT22;2216;53.806;11.598;2022-07-10T00:44:40;14.20;57.10
4406;DHT22;2216;53.806;11.598;2022-07-10T00:47:07;14.20;57.10
4406;DHT22;2216;53.806;11.598;2022-07-10T00:49:38;14.20;57.10
4406;DHT22;2216;53.806;11.598;2022-07-10T00:52:08;14.20;57.20
4406;DHT22;2216;53.806;11.598;2022-07-10T00:54:38;14.30;57.10
4406;DHT22;2216;53.806;11.598;2022-07-10T00:57:07;14.20;57.10
4406;DHT22;2216;53.806;11.598;2022-07-10T00:59:34;14.20;57.30
4406;DHT22;2216;53.806;11.598;2022-07-10T01:02:01;14.20;57.40
4406;DHT22;2216;53.806;11.598;2022-07-10T01:04:28;14.10;57.30
4406;DHT22;2216;53.806;11.598;2022-07-10T01:06:53;14.20;57.30
4406;DHT22;2216;53.806;11.598;2022-07-10T01:09:19;14.10;57.30
4406;DHT22;2216;53.806;11.598;2022-07-10T01:11:45;14.20;57.40
4406;DHT22;2216;53.806;11.598;2022-07-10T01:14:11;14.20;57.60
4406;DHT22;2216;53.806;11.598;2022-07-10T01:16:37;14.20;57.60
4406;DHT22;2216;53.806;11.598;2022-07-10T01:19:03;14.10;57.50
4406;DHT22;2216;53.806;11.598;2022-07-10T01:21:31;14.10;57.30
4406;DHT22;2216;53.806;11.598;2022-07-10T01:23:59;14.20;58.40
4406;DHT22;2216;53.806;11.598;2022-07-10T01:26:25;14.10;57.90
4406;DHT22;2216;53.806;11.598;2022-07-10T01:28:53;14.10;57.80
4406;DHT22;2216;53.806;11.598;2022-07-10T01:31:20;14.10;57.60
4406;DHT22;2216;53.806;11.598;2022-07-10T01:33:50;14.10;57.40
4406;DHT22;2216;53.806;11.598;2022-07-10T01:36:16;14.10;57.60
4406;DHT22;2216;53.806;11.598;2022-07-10T01:38:42;14.10;57.50
4406;DHT22;2216;53.806;11.598;2022-07-10T01:41:08;14.10;57.50
4406;DHT22;2216;53.806;11.598;2022-07-10T01:43:37;14.10;57.50
4406;DHT22;2216;53.806;11.598;2022-07-10T01:46:04;14.10;57.80
4406;DHT22;2216;53.806;11.598;2022-07-10T01:48:30;14.10;58.10
4406;DHT22;2216;53.806;11.598;2022-07-10T01:50:56;14.10;57.70
4406;DHT22;2216;53.806;11.598;2022-07-10T01:53:22;14.00;57.90
4406;DHT22;2216;53.806;11.598;2022-07-10T01:55:48;14.10;57.80
4406;DHT22;2216;53.806;11.598;2022-07-10T01:58:13;14.00;58.10
4406;DHT22;2216;53.806;11.598;2022-07-10T02:00:39;14.00;58.10
4406;DHT22;2216;53.806;11.598;2022-07-10T02:03:05;14.00;57.90
4406;DHT22;2216;53.806;11.598;2022-07-10T02:05:49;14.10;57.90
4406;DHT22;2216;53.806;11.598;2022-07-10T02:08:15;14.10;58.10
4406;DHT22;2216;53.806;11.598;2022-07-10T02:10:40;14.00;58.00
4406;DHT22;2216;53.806;11.598;2022-07-10T02:13:06;14.00;58.00
4406;DHT22;2216;53.806;11.598;2022-07-10T02:15:32;14.00;58.20
4406;DHT22;2216;53.806;11.598;2022-07-10T02:17:58;14.00;58.20
4406;DHT22;2216;53.806;11.598;2022-07-10T02:20:24;14.00;58.50
4406;DHT22;2216;53.806;11.598;2022-07-10T02:22:49;13.90;58.30
4406;DHT22;2216;53.806;11.598;2022-07-10T02:25:15;13.90;58.50
4406;DHT22;2216;53.806;11.598;2022-07-10T02:27:40;14.00;58.50
4406;DHT22;2216;53.806;11.598;2022-07-10T02:30:06;13.90;58.80
4406;DHT22;2216;53.806;11.598;2022-07-10T02:32:32;13.90;58.30
4406;DHT22;2216;53.806;11.598;2022-07-10T02:34:58;13.90;58.30
4406;DHT22;2216;53.806;11.598;2022-07-10T02:37:24;13.90;58.60
4406;DHT22;2216;53.806;11.598;2022-07-10T02:39:50;13.80;58.50
4406;DHT22;2216;53.806;11.598;2022-07-10T02:42:16;13.80;58.60
4406;DHT22;2216;53.806;11.598;2022-07-10T02:44:41;13.80;58.70
4406;DHT22;2216;53.806;11.598;2022-07-10T02:47:07;13.80;58.20
4406;DHT22;2216;53.806;11.598;2022-07-10T02:49:33;13.80;58.50
4406;DHT22;2216;53.806;11.598;2022-07-10T02:51:58;13.80;58.50
4406;DHT22;2216;53.806;11.598;2022-07-10T02:54:24;13.80;58.40
4406;DHT22;2216;53.806;11.598;2022-07-10T02:56:50;13.80;58.70
4406;DHT22;2216;53.806;11.598;2022-07-10T02:59:16;13.70;58.80
4406;DHT22;2216;53.806;11.598;2022-07-10T03:01:43;13.70;58.80
4406;DHT22;2216;53.806;11.598;2022-07-10T03:04:09;13.70;58.80
4406;DHT22;2216;53.806;11.598;2022-07-10T03:06:35;13.70;59.10
4406;DHT22;2216;53.806;11.598;2022-07-10T03:09:00;13.70;58.90
4406;DHT22;2216;53.806;11.598;2022-07-10T03:11:26;13.60;58.70
4406;DHT22;2216;53.806;11.598;2022-07-10T03:13:51;13.60;58.60
4406;DHT22;2216;53.806;11.598;2022-07-10T03:16:17;13.60;58.80
4406;DHT22;2216;53.806;11.598;2022-07-10T03:18:43;13.60;58.70
4406;DHT22;2216;53.806;11.598;2022-07-10T03:21:08;13.60;59.00
4406;DHT22;2216;53.806;11.598;2022-07-10T03:23:34;13.60;59.00
4406;DHT22;2216;53.806;11.598;2022-07-10T03:26:00;13.60;59.30
4406;DHT22;2216;53.806;11.598;2022-07-10T03:28:25;13.60;59.50
4406;DHT22;2216;53.806;11.598;2022-07-10T03:30:51;13.50;59.00
4406;DHT22;2216;53.806;11.598;2022-07-10T03:33:17;13.60;59.30
4406;DHT22;2216;53.806;11.598;2022-07-10T03:35:42;13.50;59.20
4406;DHT22;2216;53.806;11.598;2022-07-10T03:38:08;13.60;59.10
4406;DHT22;2216;53.806;11.598;2022-07-10T03:40:34;13.60;58.90
4406;DHT22;2216;53.806;11.598;2022-07-10T03:42:59;13.60;58.90
4406;DHT22;2216;53.806;11.598;2022-07-10T03:45:25;13.50;59.00
4406;DHT22;2216;53.806;11.598;2022-07-10T03:47:51;13.60;59.40
4406;DHT22;2216;53.806;11.598;2022-07-10T03:50:16;13.60;59.50
4406;DHT22;2216;53.806;11.598;2022-07-10T03:52:42;13.60;59.30
4406;DHT22;2216;53.806;11.598;2022-07-10T03:55:09;13.60;59.50
4406;DHT22;2216;53.806;11.598;2022-07-10T03:57:35;13.60;59.30
4406;DHT22;2216;53.806;11.598;2022-07-10T04:00:28;13.60;59.20
4406;DHT22;2216;53.806;11.598;2022-07-10T04:03:01;13.60;59.20
4406;DHT22;2216;53.806;11.598;2022-07-10T04:05:28;13.60;59.40
4406;DHT22;2216;53.806;11.598;2022-07-10T04:07:55;13.60;59.40
4406;DHT22;2216;53.806;11.598;2022-07-10T04:10:26;13.70;59.20
4406;DHT22;2216;53.806;11.598;2022-07-10T04:12:52;13.70;59.50
4406;DHT22;2216;53.806;11.598;2022-07-10T04:15:18;13.70;59.20
4406;DHT22;2216;53.806;11.598;2022-07-10T04:17:45;13.70;59.30
4406;DHT22;2216;53.806;11.598;2022-07-10T04:20:10;13.80;59.30
4406;DHT22;2216;53.806;11.598;2022-07-10T04:22:36;13.80;59.10
4406;DHT22;2216;53.806;11.598;2022-07-10T04:25:03;13.80;59.10
4406;DHT22;2216;53.806;11.598;2022-07-10T04:27:29;13.80;59.30
4406;DHT22;2216;53.806;11.598;2022-07-10T04:29:55;13.80;59.10
4406;DHT22;2216;53.806;11.598;2022-07-10T04:32:21;13.90;59.10
4406;DHT22;2216;53.806;11.598;2022-07-10T04:34:47;13.90;59.30
4406;DHT22;2216;53.806;11.598;2022-07-10T04:37:13;13.90;59.10
4406;DHT22;2216;53.806;11.598;2022-07-10T04:39:38;13.90;59.20
4406;DHT22;2216;53.806;11.598;2022-07-10T04:42:08;14.00;59.10
4406;DHT22;2216;53.806;11.598;2022-07-10T04:44:35;14.00;59.10
4406;DHT22;2216;53.806;11.598;2022-07-10T04:47:02;14.00;59.10
4406;DHT22;2216;53.806;11.598;2022-07-10T04:49:28;14.00;59.00
4406;DHT22;2216;53.806;11.598;2022-07-10T04:51:54;14.00;59.10
4406;DHT22;2216;53.806;11.598;2022-07-10T04:54:21;14.10;59.00
4406;DHT22;2216;53.806;11.598;2022-07-10T04:56:47;14.10;59.00
4406;DHT22;2216;53.806;11.598;2022-07-10T04:59:13;14.10;59.00
4406;DHT22;2216;53.806;11.598;2022-07-10T05:01:38;14.10;59.10
4406;DHT22;2216;53.806;11.598;2022-07-10T05:04:04;14.10;59.00
4406;DHT22;2216;53.806;11.598;2022-07-10T05:06:30;14.20;59.10
4406;DHT22;2216;53.806;11.598;2022-07-10T05:08:56;14.10;58.90
4406;DHT22;2216;53.806;11.598;2022-07-10T05:11:22;14.20;59.00
4406;DHT22;2216;53.806;11.598;2022-07-10T05:13:48;14.20;58.90
4406;DHT22;2216;53.806;11.598;2022-07-10T05:16:18;14.20;59.20
4406;DHT22;2216;53.806;11.598;2022-07-10T05:18:44;14.20;58.90
4406;DHT22;2216;53.806;11.598;2022-07-10T05:21:10;14.20;58.90
4406;DHT22;2216;53.806;11.598;2022-07-10T05:23:37;14.30;58.90
4406;DHT22;2216;53.806;11.598;2022-07-10T05:26:04;14.30;59.10
4406;DHT22;2216;53.806;11.598;2022-07-10T05:28:30;14.30;59.00
4406;DHT22;2216;53.806;11.598;2022-07-10T05:30:56;14.30;59.00
4406;DHT22;2216;53.806;11.598;2022-07-10T05:33:21;14.30;59.00
4406;DHT22;2216;53.806;11.598;2022-07-10T05:35:47;14.30;59.00
4406;DHT22;2216;53.806;11.598;2022-07-10T05:38:13;14.40;59.10
4406;DHT22;2216;53.806;11.598;2022-07-10T05:40:39;14.40;59.00
4406;DHT22;2216;53.806;11.598;2022-07-10T05:43:05;14.40;59.00
4406;DHT22;2216;53.806;11.598;2022-07-10T05:45:31;14.40;58.80
4406;DHT22;2216;53.806;11.598;2022-07-10T05:47:56;14.40;59.00
4406;DHT22;2216;53.806;11.598;2022-07-10T05:50:22;14.40;58.80
4406;DHT22;2216;53.806;11.598;2022-07-10T05:52:48;14.40;59.10
4406;DHT22;2216;53.806;11.598;2022-07-10T05:55:13;14.40;58.90
4406;DHT22;2216;53.806;11.598;2022-07-10T05:57:40;14.50;58.90
4406;DHT22;2216;53.806;11.598;2022-07-10T06:00:07;14.50;58.90
4406;DHT22;2216;53.806;11.598;2022-07-10T06:02:33;14.50;59.00
4406;DHT22;2216;53.806;11.598;2022-07-10T06:04:59;14.50;58.90
4406;DHT22;2216;53.806;11.598;2022-07-10T06:07:26;14.60;58.90
4406;DHT22;2216;53.806;11.598;2022-07-10T06:09:52;14.60;59.00
4406;DHT22;2216;53.806;11.598;2022-07-10T06:12:18;14.60;59.00
4406;DHT22;2216;53.806;11.598;2022-07-10T06:14:44;14.70;59.00
4406;DHT22;2216;53.806;11.598;2022-07-10T06:17:09;14.70;59.10
4406;DHT22;2216;53.806;11.598;2022-07-10T06:19:35;14.70;58.90
4406;DHT22;2216;53.806;11.598;2022-07-10T06:22:01;14.80;59.00
4406;DHT22;2216;53.806;11.598;2022-07-10T06:24:45;14.80;59.20
4406;DHT22;2216;53.806;11.598;2022-07-10T06:27:11;14.90;59.10
4406;DHT22;2216;53.806;11.598;2022-07-10T06:29:37;14.90;59.00
4406;DHT22;2216;53.806;11.598;2022-07-10T06:32:04;15.00;59.70
4406;DHT22;2216;53.806;11.598;2022-07-10T06:34:30;15.00;59.20
4406;DHT22;2216;53.806;11.598;2022-07-10T06:36:56;15.10;59.10
4406;DHT22;2216;53.806;11.598;2022-07-10T06:39:21;15.10;59.00
4406;DHT22;2216;53.806;11.598;2022-07-10T06:41:47;15.20;59.00
4406;DHT22;2216;53.806;11.598;2022-07-10T06:44:12;15.20;59.10
4406;DHT22;2216;53.806;11.598;2022-07-10T06:46:38;15.30;59.10
4406;DHT22;2216;53.806;11.598;2022-07-10T06:49:04;15.30;58.80
4406;DHT22;2216;53.806;11.598;2022-07-10T06:51:30;15.30;58.80
4406;DHT22;2216;53.806;11.598;2022-07-10T06:53:57;15.40;58.80
4406;DHT22;2216;53.806;11.598;2022-07-10T06:56:23;15.40;58.90
4406;DHT22;2216;53.806;11.598;2022-07-10T06:58:48;15.50;58.90
4406;DHT22;2216;53.806;11.598;2022-07-10T07:01:14;15.50;58.80
4406;DHT22;2216;53.806;11.598;2022-07-10T07:03:40;15.60;58.80
4406;DHT22;2216;53.806;11.598;2022-07-10T07:06:06;15.60;58.80
4406;DHT22;2216;53.806;11.598;2022-07-10T07:08:31;15.60;58.80
4406;DHT22;2216;53.806;11.598;2022-07-10T07:10:57;15.60;58.70
4406;DHT22;2216;53.806;11.598;2022-07-10T07:13:23;15.60;58.60
4406;DHT22;2216;53.806;11.598;2022-07-10T07:15:49;15.60;58.60
4406;DHT22;2216;53.806;11.598;2022-07-10T07:18:24;15.50;58.60
4406;DHT22;2216;53.806;11.598;2022-07-10T07:20:59;15.60;58.70
4406;DHT22;2216;53.806;11.598;2022-07-10T07:24:03;15.70;58.80
4406;DHT22;2216;53.806;11.598;2022-07-10T07:26:30;15.70;58.60
4406;DHT22;2216;53.806;11.598;2022-07-10T07:28:56;15.70;58.60
4406;DHT22;2216;53.806;11.598;2022-07-10T07:31:22;15.70;58.70
4406;DHT22;2216;53.806;11.598;2022-07-10T07:33:47;15.70;58.70
4406;DHT22;2216;53.806;11.598;2022-07-10T07:36:13;15.80;58.70
4406;DHT22;2216;53.806;11.598;2022-07-10T07:38:39;15.80;58.60
4406;DHT22;2216;53.806;11.598;2022-07-10T07:41:04;15.80;58.70
4406;DHT22;2216;53.806;11.598;2022-07-10T07:43:30;15.80;58.70
4406;DHT22;2216;53.806;11.598;2022-07-10T07:45:56;15.90;58.70
4406;DHT22;2216;53.806;11.598;2022-07-10T07:48:22;15.90;58.80
4406;DHT22;2216;53.806;11.598;2022-07-10T07:50:47;15.90;58.90
4406;DHT22;2216;53.806;11.598;2022-07-10T07:53:13;16.00;58.80
4406;DHT22;2216;53.806;11.598;2022-07-10T07:55:39;16.00;58.70
4406;DHT22;2216;53.806;11.598;2022-07-10T07:58:05;16.10;58.70
4406;DHT22;2216;53.806;11.598;2022-07-10T08:00:31;16.20;58.70
4406;DHT22;2216;53.806;11.598;2022-07-10T08:02:57;16.10;58.60
4406;DHT22;2216;53.806;11.598;2022-07-10T08:05:23;16.20;58.70
4406;DHT22;2216;53.806;11.598;2022-07-10T08:07:51;16.30;58.70
4406;DHT22;2216;53.806;11.598;2022-07-10T08:10:21;16.30;58.70
4406;DHT22;2216;53.806;11.598;2022-07-10T08:12:48;16.40;58.70
4406;DHT22;2216;53.806;11.598;2022-07-10T08:15:16;16.50;58.80
4406;DHT22;2216;53.806;11.598;2022-07-10T08:17:43;16.50;58.80
4406;DHT22;2216;53.806;11.598;2022-07-10T08:20:12;16.60;58.80
4406;DHT22;2216;53.806;11.598;2022-07-10T08:22:40;16.70;58.80
4406;DHT22;2216;53.806;11.598;2022-07-10T08:25:07;16.80;58.80
4406;DHT22;2216;53.806;11.598;2022-07-10T08:27:33;16.90;58.80
4406;DHT22;2216;53.806;11.598;2022-07-10T08:29:58;16.90;58.60
4406;DHT22;2216;53.806;11.598;2022-07-10T08:32:24;17.00;58.50
4406;DHT22;2216;53.806;11.598;2022-07-10T08:34:51;17.00;58.30
4406;DHT22;2216;53.806;11.598;2022-07-10T08:37:17;17.10;58.40
4406;DHT22;2216;53.806;11.598;2022-07-10T08:39:44;17.10;58.30
4406;DHT22;2216;53.806;11.598;2022-07-10T08:42:11;17.20;58.40
4406;DHT22;2216;53.806;11.598;2022-07-10T08:44:37;17.30;58.40
4406;DHT22;2216;53.806;11.598;2022-07-10T08:47:03;17.40;58.50
4406;DHT22;2216;53.806;11.598;2022-07-10T08:49:31;17.50;58.50
4406;DHT22;2216;53.806;11.598;2022-07-10T08:52:08;17.50;58.40
4406;DHT22;2216;53.806;11.598;2022-07-10T08:54:34;17.60;58.40
4406;DHT22;2216;53.806;11.598;2022-07-10T08:57:03;17.60;58.00
4406;DHT22;2216;53.806;11.598;2022-07-10T08:59:30;17.70;58.00
4406;DHT22;2216;53.806;11.598;2022-07-10T09:01:56;17.70;57.80
4406;DHT22;2216;53.806;11.598;2022-07-10T09:04:23;17.70;57.80
4406;DHT22;2216;53.806;11.598;2022-07-10T09:06:51;17.70;57.80
4406;DHT22;2216;53.806;11.598;2022-07-10T09:09:18;17.70;57.90
4406;DHT22;2216;53.806;11.598;2022-07-10T09:11:44;17.70;57.90
4406;DHT22;2216;53.806;11.598;2022-07-10T09:14:13;17.80;58.00
4406;DHT22;2216;53.806;11.598;2022-07-10T09:16:44;17.80;57.90
4406;DHT22;2216;53.806;11.598;2022-07-10T09:19:18;17.80;58.00
4406;DHT22;2216;53.806;11.598;2022-07-10T09:21:46;17.90;58.00
4406;DHT22;2216;53.806;11.598;2022-07-10T09:24:13;17.90;57.90
4406;DHT22;2216;53.806;11.598;2022-07-10T09:26:40;18.00;57.60
4406;DHT22;2216;53.806;11.598;2022-07-10T09:29:12;17.90;57.60
4406;DHT22;2216;53.806;11.598;2022-07-10T09:34:37;18.00;57.60
4406;DHT22;2216;53.806;11.598;2022-07-10T09:37:28;18.00;57.80
4406;DHT22;2216;53.806;11.598;2022-07-10T09:40:02;18.10;57.90
4406;DHT22;2216;53.806;11.598;2022-07-10T09:48:04;18.40;57.90
4406;DHT22;2216;53.806;11.598;2022-07-10T09:50:34;18.50;58.00
4406;DHT22;2216;53.806;11.598;2022-07-10T09:53:07;18.70;58.30
4406;DHT22;2216;53.806;11.598;2022-07-10T09:55:36;18.80;58.30
4406;DHT22;2216;53.806;11.598;2022-07-10T09:58:07;19.00;58.10
4406;DHT22;2216;53.806;11.598;2022-07-10T10:00:36;19.20;58.00
4406;DHT22;2216;53.806;11.598;2022-07-10T10:03:08;19.30;57.70
4406;DHT22;2216;53.806;11.598;2022-07-10T10:05:43;19.40;57.30
4406;DHT22;2216;53.806;11.598;2022-07-10T10:08:17;19.50;57.10
4406;DHT22;2216;53.806;11.598;2022-07-10T10:10:46;19.50;56.80
4406;DHT22;2216;53.806;11.598;2022-07-10T10:13:22;19.50;57.10
4406;DHT22;2216;53.806;11.598;2022-07-10T10:15:51;19.50;55.70
4406;DHT22;2216;53.806;11.598;2022-07-10T10:18:18;19.50;56.40
4406;DHT22;2216;53.806;11.598;2022-07-10T10:20:49;19.50;56.40
4406;DHT22;2216;53.806;11.598;2022-07-10T10:23:17;19.50;56.80
4406;DHT22;2216;53.806;11.598;2022-07-10T10:25:46;19.50;56.50
4406;DHT22;2216;53.806;11.598;2022-07-10T10:28:13;19.50;56.90
4406;DHT22;2216;53.806;11.598;2022-07-10T10:30:41;19.50;56.00
4406;DHT22;2216;53.806;11.598;2022-07-10T10:35:59;19.50;55.80
4406;DHT22;2216;53.806;11.598;2022-07-10T10:41:38;19.50;56.70
4406;DHT22;2216;53.806;11.598;2022-07-10T10:46:33;19.60;56.40
4406;DHT22;2216;53.806;11.598;2022-07-10T10:49:07;19.70;56.50
4406;DHT22;2216;53.806;11.598;2022-07-10T10:51:59;19.80;56.10
4406;DHT22;2216;53.806;11.598;2022-07-10T10:57:21;19.90;56.60
4406;DHT22;2216;53.806;11.598;2022-07-10T11:02:29;20.10;56.50
4406;DHT22;2216;53.806;11.598;2022-07-10T11:07:57;20.20;56.30
4406;DHT22;2216;53.806;11.598;2022-07-10T11:10:33;20.20;56.20
4406;DHT22;2216;53.806;11.598;2022-07-10T11:13:05;20.30;56.10
4406;DHT22;2216;53.806;11.598;2022-07-10T11:15:42;20.40;56.80
4406;DHT22;2216;53.806;11.598;2022-07-10T11:20:47;20.70;56.80
4406;DHT22;2216;53.806;11.598;2022-07-10T11:26:06;21.10;56.60
4406;DHT22;2216;53.806;11.598;2022-07-10T11:28:41;21.30;55.90
4406;DHT22;2216;53.806;11.598;2022-07-10T11:31:18;21.40;55.40
4406;DHT22;2216;53.806;11.598;2022-07-10T11:33:50;21.50;55.20
4406;DHT22;2216;53.806;11.598;2022-07-10T11:36:19;21.40;55.60
4406;DHT22;2216;53.806;11.598;2022-07-10T11:39:04;21.40;55.30
4406;DHT22;2216;53.806;11.598;2022-07-10T11:41:41;21.40;55.60
4406;DHT22;2216;53.806;11.598;2022-07-10T11:44:16;21.60;55.70
4406;DHT22;2216;53.806;11.598;2022-07-10T11:46:43;21.60;56.10
4406;DHT22;2216;53.806;11.598;2022-07-10T11:49:10;21.80;55.80
4406;DHT22;2216;53.806;11.598;2022-07-10T11:51:38;21.80;55.50
4406;DHT22;2216;53.806;11.598;2022-07-10T11:54:09;21.80;54.50
4406;DHT22;2216;53.806;11.598;2022-07-10T11:56:39;21.70;55.00
4406;DHT22;2216;53.806;11.598;2022-07-10T11:59:10;21.70;55.50
4406;DHT22;2216;53.806;11.598;2022-07-10T12:01:44;21.80;53.40
4406;DHT22;2216;53.806;11.598;2022-07-10T12:04:16;21.90;55.40
4406;DHT22;2216;53.806;11.598;2022-07-10T12:06:45;21.90;55.30
4406;DHT22;2216;53.806;11.598;2022-07-10T12:09:13;22.00;55.10
4406;DHT22;2216;53.806;11.598;2022-07-10T12:11:44;22.10;54.70
4406;DHT22;2216;53.806;11.598;2022-07-10T12:14:22;22.10;55.40
4406;DHT22;2216;53.806;11.598;2022-07-10T12:16:50;22.30;54.90
4406;DHT22;2216;53.806;11.598;2022-07-10T12:19:20;22.40;55.30
4406;DHT22;2216;53.806;11.598;2022-07-10T12:21:48;22.40;54.50
4406;DHT22;2216;53.806;11.598;2022-07-10T12:24:16;22.30;53.60
4406;DHT22;2216;53.806;11.598;2022-07-10T12:26:44;22.30;53.50
4406;DHT22;2216;53.806;11.598;2022-07-10T12:29:27;22.10;53.90
4406;DHT22;2216;53.806;11.598;2022-07-10T12:31:58;22.10;53.80
4406;DHT22;2216;53.806;11.598;2022-07-10T12:34:35;22.10;51.60
4406;DHT22;2216;53.806;11.598;2022-07-10T12:37:07;22.10;52.90
4406;DHT22;2216;53.806;11.598;2022-07-10T12:39:36;22.10;52.00
4406;DHT22;2216;53.806;11.598;2022-07-10T12:42:06;22.10;53.00
4406;DHT22;2216;53.806;11.598;2022-07-10T12:44:44;22.10;53.70
4406;DHT22;2216;53.806;11.598;2022-07-10T12:47:17;22.10;53.60
4406;DHT22;2216;53.806;11.598;2022-07-10T12:50:03;22.10;54.10
4406;DHT22;2216;53.806;11.598;2022-07-10T12:52:35;22.20;53.90
4406;DHT22;2216;53.806;11.598;2022-07-10T12:55:14;22.20;52.60
4406;DHT22;2216;53.806;11.598;2022-07-10T12:57:59;22.20;52.60
4406;DHT22;2216;53.806;11.598;2022-07-10T13:00:35;22.20;53.50
4406;DHT22;2216;53.806;11.598;2022-07-10T13:03:02;22.20;53.50
4406;DHT22;2216;53.806;11.598;2022-07-10T13:05:38;22.10;53.30
4406;DHT22;2216;53.806;11.598;2022-07-10T13:10:36;22.00;53.00
4406;DHT22;2216;53.806;11.598;2022-07-10T13:13:03;22.00;53.30
4406;DHT22;2216;53.806;11.598;2022-07-10T13:15:29;21.90;53.60
4406;DHT22;2216;53.806;11.598;2022-07-10T13:17:56;22.00;53.60
4406;DHT22;2216;53.806;11.598;2022-07-10T13:20:22;22.00;53.30
4406;DHT22;2216;53.806;11.598;2022-07-10T13:22:48;22.10;54.30
4406;DHT22;2216;53.806;11.598;2022-07-10T13:25:14;22.00;52.90
4406;DHT22;2216;53.806;11.598;2022-07-10T13:27:40;22.00;53.00
4406;DHT22;2216;53.806;11.598;2022-07-10T13:30:07;22.00;52.90
4406;DHT22;2216;53.806;11.598;2022-07-10T13:32:33;21.90;52.90
4406;DHT22;2216;53.806;11.598;2022-07-10T13:34:59;22.00;53.60
4406;DHT22;2216;53.806;11.598;2022-07-10T13:37:25;22.00;53.60
4406;DHT22;2216;53.806;11.598;2022-07-10T13:39:51;22.10;53.60
4406;DHT22;2216;53.806;11.598;2022-07-10T13:42:17;22.10;53.50
4406;DHT22;2216;53.806;11.598;2022-07-10T13:44:42;22.10;52.60
4406;DHT22;2216;53.806;11.598;2022-07-10T13:47:08;22.10;53.00
4406;DHT22;2216;53.806;11.598;2022-07-10T13:49:34;22.10;52.20
4406;DHT22;2216;53.806;11.598;2022-07-10T13:51:59;22.10;52.50
4406;DHT22;2216;53.806;11.598;2022-07-10T13:54:25;22.00;52.40
4406;DHT22;2216;53.806;11.598;2022-07-10T13:56:51;22.10;52.90
4406;DHT22;2216;53.806;11.598;2022-07-10T13:59:17;22.10;52.60
4406;DHT22;2216;53.806;11.598;2022-07-10T14:01:42;22.10;52.60
4406;DHT22;2216;53.806;11.598;2022-07-10T14:04:08;22.00;52.20
4406;DHT22;2216;53.806;11.598;2022-07-10T14:06:34;21.90;51.30
4406;DHT22;2216;53.806;11.598;2022-07-10T14:08:59;21.80;52.30
4406;DHT22;2216;53.806;11.598;2022-07-10T14:11:26;21.80;51.30
4406;DHT22;2216;53.806;11.598;2022-07-10T14:13:51;21.80;52.70
4406;DHT22;2216;53.806;11.598;2022-07-10T14:16:17;21.80;52.70
4406;DHT22;2216;53.806;11.598;2022-07-10T14:18:42;21.80;51.60
4406;DHT22;2216;53.806;11.598;2022-07-10T14:21:11;21.80;51.80
4406;DHT22;2216;53.806;11.598;2022-07-10T14:23:40;21.80;51.30
4406;DHT22;2216;53.806;11.598;2022-07-10T14:26:07;21.70;51.90
4406;DHT22;2216;53.806;11.598;2022-07-10T14:28:34;21.70;51.50
4406;DHT22;2216;53.806;11.598;2022-07-10T14:31:03;21.60;51.80
4406;DHT22;2216;53.806;11.598;2022-07-10T14:33:31;21.60;51.80
4406;DHT22;2216;53.806;11.598;2022-07-10T14:35:59;21.60;52.10
4406;DHT22;2216;53.806;11.598;2022-07-10T14:38:25;21.60;51.90
4406;DHT22;2216;53.806;11.598;2022-07-10T14:40:51;21.60;52.40
4406;DHT22;2216;53.806;11.598;2022-07-10T14:43:19;21.70;52.50
4406;DHT22;2216;53.806;11.598;2022-07-10T14:45:45;21.60;52.60
4406;DHT22;2216;53.806;11.598;2022-07-10T14:48:11;21.60;51.50
4406;DHT22;2216;53.806;11.598;2022-07-10T14:50:37;21.50;52.00
4406;DHT22;2216;53.806;11.598;2022-07-10T14:53:05;21.40;52.20
4406;DHT22;2216;53.806;11.598;2022-07-10T14:55:31;21.40;52.10
4406;DHT22;2216;53.806;11.598;2022-07-10T14:57:58;21.40;52.00
4406;DHT22;2216;53.806;11.598;2022-07-10T15:00:23;21.40;51.90
4406;DHT22;2216;53.806;11.598;2022-07-10T15:02:49;21.40;52.20
4406;DHT22;2216;53.806;11.598;2022-07-10T15:05:15;21.40;51.90
4406;DHT22;2216;53.806;11.598;2022-07-10T15:07:40;21.40;52.30
4406;DHT22;2216;53.806;11.598;2022-07-10T15:10:07;21.40;52.30
4406;DHT22;2216;53.806;11.598;2022-07-10T15:12:37;21.40;52.60
4406;DHT22;2216;53.806;11.598;2022-07-10T15:15:06;21.40;52.50
4406;DHT22;2216;53.806;11.598;2022-07-10T15:17:36;21.50;52.40
4406;DHT22;2216;53.806;11.598;2022-07-10T15:20:03;21.50;52.30
4406;DHT22;2216;53.806;11.598;2022-07-10T15:22:29;21.50;52.60
4406;DHT22;2216;53.806;11.598;2022-07-10T15:24:56;21.60;52.60
4406;DHT22;2216;53.806;11.598;2022-07-10T15:27:22;21.60;53.20
4406;DHT22;2216;53.806;11.598;2022-07-10T15:29:47;21.70;52.70
4406;DHT22;2216;53.806;11.598;2022-07-10T15:32:13;21.70;52.70
4406;DHT22;2216;53.806;11.598;2022-07-10T15:34:39;21.70;52.60
4406;DHT22;2216;53.806;11.598;2022-07-10T15:37:05;21.70;51.60
4406;DHT22;2216;53.806;11.598;2022-07-10T15:39:30;21.70;52.10
4406;DHT22;2216;53.806;11.598;2022-07-10T15:42:07;21.70;51.60
4406;DHT22;2216;53.806;11.598;2022-07-10T15:44:33;21.60;51.80
4406;DHT22;2216;53.806;11.598;2022-07-10T15:46:58;21.40;51.30
4406;DHT22;2216;53.806;11.598;2022-07-10T15:49:24;21.30;51.80
4406;DHT22;2216;53.806;11.598;2022-07-10T15:51:50;21.20;52.10
4406;DHT22;2216;53.806;11.598;2022-07-10T15:54:15;21.20;52.10
4406;DHT22;2216;53.806;11.598;2022-07-10T15:56:43;21.10;52.20
4406;DHT22;2216;53.806;11.598;2022-07-10T15:59:10;21.00;52.10
4406;DHT22;2216;53.806;11.598;2022-07-10T16:01:35;21.00;52.30
4406;DHT22;2216;53.806;11.598;2022-07-10T16:04:01;21.00;52.40
4406;DHT22;2216;53.806;11.598;2022-07-10T16:06:27;21.00;52.60
4406;DHT22;2216;53.806;11.598;2022-07-10T16:08:53;20.90;52.50
4406;DHT22;2216;53.806;11.598;2022-07-10T16:11:20;21.00;52.50
4406;DHT22;2216;53.806;11.598;2022-07-10T16:13:50;21.00;52.30
4406;DHT22;2216;53.806;11.598;2022-07-10T16:16:16;21.00;52.60
4406;DHT22;2216;53.806;11.598;2022-07-10T16:18:42;21.10;52.50
4406;DHT22;2216;53.806;11.598;2022-07-10T16:21:08;21.00;52.10